Time;durP1;ratioP1;P1;durP2;ratioP2;P2;SDS_P1;SDS_P2;PMS_P1;PMS_P2;Temp;Humidity;BMP_temperature;BMP_pressure;BME280_temperature;BME280_humidity;BME280_pressure;Samples;Min_cycle;Max_cycle;Signal;HPM_P1;HPM_P2
2023/01/17 00:01:04;;;;;;;5.47;1.77;;;10.80;55.20;;;;;;6109072;29;20039;-78
2023/01/17 00:10:45;;;;;;;3.80;1.83;;;10.80;54.70;;;;;;6107320;29;20044;-78
2023/01/17 00:13:46;;;;;;;10.55;1.83;;;10.70;54.70;;;;;;6088222;29;20103;-78
2023/01/17 00:16:47;;;;;;;3.95;1.83;;;10.60;54.80;;;;;;6104960;29;20105;-78
2023/01/17 00:26:32;;;;;;;4.95;1.42;;;10.60;54.90;;;;;;6088018;29;20111;-78
2023/01/17 01:35:02;;;;;;;8.07;4.68;;;9.00;59.30;;;;;;6107632;29;20032;-77
2023/01/17 01:38:03;;;;;;;7.25;3.60;;;8.90;59.70;;;;;;6090633;29;20043;-78
2023/01/17 01:41:04;;;;;;;8.88;4.03;;;8.80;60.60;;;;;;6106974;29;20044;-77
2023/01/17 01:44:40;;;;;;;9.80;4.03;;;8.80;60.10;;;;;;6096589;29;20385;-77
2023/01/17 01:47:42;;;;;;;8.40;4.22;;;8.70;60.10;;;;;;6088051;29;20075;-78
2023/01/17 01:50:47;;;;;;;9.88;3.50;;;8.60;60.20;;;;;;6090048;29;20044;-77
2023/01/17 01:53:53;;;;;;;10.85;4.63;;;8.70;60.30;;;;;;6107023;29;20426;-78
2023/01/17 01:56:57;;;;;;;6.93;4.10;;;8.70;60.30;;;;;;6106094;29;20036;-78
2023/01/17 02:00:13;;;;;;;6.47;3.33;;;8.70;60.30;;;;;;6074420;29;20036;-77
2023/01/17 02:03:18;;;;;;;9.65;3.75;;;8.70;60.40;;;;;;6090499;29;20062;-78
2023/01/17 02:06:31;;;;;;;7.68;3.10;;;8.60;60.70;;;;;;6088991;29;20477;-78
2023/01/17 02:09:32;;;;;;;7.95;3.75;;;8.50;60.70;;;;;;6102713;29;20366;-79
2023/01/17 02:12:33;;;;;;;8.70;3.05;;;8.50;60.90;;;;;;6091127;29;20044;-78
2023/01/17 02:15:59;;;;;;;3.35;2.72;;;8.50;60.90;;;;;;6093770;29;20112;-78
2023/01/17 02:19:37;;;;;;;6.35;3.75;;;8.50;61.10;;;;;;6089694;29;20462;-78
2023/01/17 02:22:46;;;;;;;8.73;3.58;;;8.50;61.30;;;;;;6106294;29;20047;-78
2023/01/17 02:25:53;;;;;;;4.03;2.72;;;8.40;61.50;;;;;;6106779;29;20048;-77
2023/01/17 02:29:25;;;;;;;5.88;3.65;;;8.40;61.70;;;;;;6090023;29;20058;-79
2023/01/17 02:32:29;;;;;;;9.05;3.38;;;8.40;61.70;;;;;;6099022;29;20112;-78
2023/01/17 02:35:43;;;;;;;12.98;2.65;;;8.40;61.60;;;;;;6106954;29;20028;-78
2023/01/17 02:38:58;;;;;;;5.15;3.10;;;8.50;61.50;;;;;;6106833;29;20040;-79
2023/01/17 02:42:05;;;;;;;4.13;3.10;;;8.50;61.30;;;;;;6100224;29;20083;-79
2023/01/17 02:45:07;;;;;;;6.15;3.28;;;8.60;61.20;;;;;;6124295;29;20063;-78
2023/01/17 02:48:12;;;;;;;7.63;3.30;;;8.60;61.00;;;;;;6097533;29;20112;-78
2023/01/17 02:51:32;;;;;;;6.85;3.05;;;8.60;61.00;;;;;;6112740;29;20044;-77
2023/01/17 02:54:54;;;;;;;5.18;3.15;;;8.60;60.70;;;;;;6101333;29;20040;-77
2023/01/17 02:58:04;;;;;;;3.83;2.75;;;8.60;60.70;;;;;;6106536;29;20032;-77
2023/01/17 03:01:13;;;;;;;3.42;2.17;;;8.60;60.70;;;;;;6089658;29;20517;-78
2023/01/17 03:04:29;;;;;;;6.15;3.25;;;8.50;60.80;;;;;;6105819;29;20036;-79
2023/01/17 03:07:31;;;;;;;6.68;3.13;;;8.50;61.80;;;;;;6087088;29;20060;-80
2023/01/17 03:10:34;;;;;;;4.90;2.88;;;8.50;61.00;;;;;;6106312;29;20040;-79
2023/01/17 03:13:35;;;;;;;7.35;2.80;;;8.40;61.10;;;;;;6089362;29;20043;-79
2023/01/17 03:16:36;;;;;;;6.68;3.88;;;8.40;61.30;;;;;;6088836;29;20119;-78
2023/01/17 03:19:37;;;;;;;7.45;3.47;;;8.40;61.50;;;;;;6105557;29;20119;-80
2023/01/17 03:22:38;;;;;;;8.10;3.65;;;8.40;61.70;;;;;;6091610;29;20086;-81
2023/01/17 03:25:39;;;;;;;5.63;2.63;;;8.40;61.60;;;;;;6116914;29;20119;-80
2023/01/17 03:28:40;;;;;;;4.82;2.40;;;8.40;61.50;;;;;;6117039;29;20477;-78
2023/01/17 03:31:41;;;;;;;6.07;2.78;;;8.50;61.40;;;;;;6113623;29;20120;-79
2023/01/17 03:34:42;;;;;;;11.50;4.10;;;8.40;61.40;;;;;;6104826;29;20043;-81
2023/01/17 03:37:43;;;;;;;7.75;2.75;;;8.40;61.50;;;;;;6105364;29;20092;-79
2023/01/17 03:40:44;;;;;;;7.82;3.72;;;8.40;61.70;;;;;;6089816;29;20127;-79
2023/01/17 03:43:45;;;;;;;5.63;2.92;;;8.40;61.70;;;;;;6106092;29;20074;-79
2023/01/17 03:46:46;;;;;;;7.13;2.50;;;8.30;61.70;;;;;;6105028;29;20036;-79
2023/01/17 03:49:46;;;;;;;3.88;2.25;;;8.30;61.90;;;;;;6087916;29;20501;-80
2023/01/17 03:52:47;;;;;;;8.13;3.28;;;8.30;62.10;;;;;;6073670;29;20108;-79
2023/01/17 03:55:48;;;;;;;7.30;3.42;;;8.20;62.30;;;;;;6088465;29;20495;-79
2023/01/17 03:58:50;;;;;;;8.23;3.22;;;8.20;62.40;;;;;;6087691;29;20040;-79
2023/01/17 04:01:51;;;;;;;8.13;3.47;;;8.20;62.40;;;;;;6084340;29;20430;-79
2023/01/17 04:04:51;;;;;;;2.65;2.00;;;8.20;63.10;;;;;;6088989;29;20068;-80
2023/01/17 04:07:52;;;;;;;5.22;3.00;;;8.30;62.20;;;;;;6105204;29;20536;-79
2023/01/17 04:10:53;;;;;;;4.72;2.38;;;8.30;62.20;;;;;;6105910;29;20048;-79
2023/01/17 04:13:54;;;;;;;5.25;2.90;;;8.30;62.10;;;;;;6071930;29;20059;-81
2023/01/17 04:16:55;;;;;;;3.88;1.83;;;8.30;62.10;;;;;;6112778;29;20032;-79
2023/01/17 04:19:56;;;;;;;3.40;2.10;;;8.40;62.20;;;;;;6116429;29;20048;-78
2023/01/17 04:22:57;;;;;;;3.47;2.50;;;8.40;62.10;;;;;;6114218;29;20055;-80
2023/01/17 04:25:58;;;;;;;5.25;2.45;;;8.30;62.00;;;;;;6102071;29;20444;-79
2023/01/17 04:28:59;;;;;;;11.98;2.78;;;8.30;62.20;;;;;;6135820;29;20024;-78
2023/01/17 04:32:00;;;;;;;4.13;2.45;;;8.30;62.40;;;;;;6126847;29;20044;-79
2023/01/17 04:35:01;;;;;;;4.05;1.83;;;8.30;62.50;;;;;;6112306;29;20036;-79
2023/01/17 04:38:02;;;;;;;2.28;1.88;;;8.40;62.50;;;;;;6134406;29;20044;-79
2023/01/17 04:41:03;;;;;;;7.75;2.75;;;8.40;62.40;;;;;;6118392;29;20160;-79
2023/01/17 04:44:04;;;;;;;4.68;2.60;;;8.40;62.20;;;;;;6130141;29;20100;-80
2023/01/17 04:47:05;;;;;;;4.38;1.85;;;8.40;62.30;;;;;;6111851;29;20044;-80
2023/01/17 04:50:06;;;;;;;3.50;1.80;;;8.40;62.30;;;;;;6107117;29;20374;-79
2023/01/17 04:53:07;;;;;;;1.50;1.40;;;8.40;62.40;;;;;;6097161;29;20044;-79
2023/01/17 04:56:09;;;;;;;1.52;1.42;;;8.40;62.40;;;;;;6097354;29;20362;-79
2023/01/17 04:59:10;;;;;;;3.60;1.90;;;8.40;62.50;;;;;;6095611;29;20036;-80
2023/01/17 05:02:12;;;;;;;3.90;2.03;;;8.40;62.60;;;;;;6073891;29;20390;-80
2023/01/17 05:05:13;;;;;;;5.57;1.85;;;8.40;62.50;;;;;;6115251;29;20083;-79
2023/01/17 05:08:14;;;;;;;5.97;2.28;;;8.50;62.40;;;;;;6110711;29;20036;-79
2023/01/17 05:11:16;;;;;;;1.75;1.30;;;8.50;62.40;;;;;;6109600;29;20048;-80
2023/01/17 05:14:17;;;;;;;4.78;1.88;;;8.50;62.30;;;;;;6111670;29;20040;-79
2023/01/17 05:17:18;;;;;;;3.35;1.98;;;8.50;62.20;;;;;;6113880;29;20063;-79
2023/01/17 05:20:22;;;;;;;3.72;2.75;;;8.50;62.30;;;;;;6110954;29;20450;-81
2023/01/17 05:23:24;;;;;;;4.47;1.85;;;8.50;62.30;;;;;;6109994;29;20040;-79
2023/01/17 05:26:25;;;;;;;3.97;2.25;;;8.60;62.20;;;;;;6097421;29;20040;-80
2023/01/17 05:29:26;;;;;;;2.17;1.98;;;8.60;62.10;;;;;;6093164;29;20139;-80
2023/01/17 05:32:27;;;;;;;2.55;1.90;;;8.70;62.00;;;;;;6110506;29;20443;-80
2023/01/17 05:35:33;;;;;;;2.22;1.75;;;8.60;61.90;;;;;;6123743;29;20040;-74
2023/01/17 05:38:35;;;;;;;4.25;2.38;;;8.60;61.90;;;;;;6109356;29;20048;-75
2023/01/17 05:41:35;;;;;;;3.35;2.00;;;8.50;62.00;;;;;;6117927;29;20091;-73
2023/01/17 05:44:37;;;;;;;0.95;0.82;;;8.50;62.10;;;;;;6103963;29;20378;-74
2023/01/17 05:47:38;;;;;;;1.48;1.08;;;8.50;62.30;;;;;;6102701;29;20418;-76
2023/01/17 05:50:39;;;;;;;5.65;2.53;;;8.40;62.40;;;;;;6091930;29;20048;-74
2023/01/17 05:53:39;;;;;;;2.83;1.77;;;8.40;62.50;;;;;;6078985;29;20044;-74
2023/01/17 05:56:40;;;;;;;3.33;1.83;;;8.40;62.60;;;;;;6091014;29;20339;-74
2023/01/17 05:59:41;;;;;;;4.63;2.33;;;8.40;62.70;;;;;;6082983;29;20039;-76
2023/01/17 06:02:43;;;;;;;5.03;1.85;;;8.50;62.80;;;;;;6119258;29;20429;-75
2023/01/17 06:05:46;;;;;;;3.13;1.33;;;8.40;62.90;;;;;;6105806;29;20449;-74
2023/01/17 06:08:47;;;;;;;4.53;3.03;;;8.40;63.00;;;;;;6115116;29;20132;-74
2023/01/17 06:11:47;;;;;;;4.28;2.28;;;8.40;63.20;;;;;;6115749;29;20051;-79
2023/01/17 06:14:48;;;;;;;3.90;2.20;;;8.30;63.20;;;;;;6124313;29;20108;-75
2023/01/17 06:17:49;;;;;;;3.53;2.25;;;8.30;63.40;;;;;;6112312;29;20363;-74
2023/01/17 06:20:54;;;;;;;2.45;1.80;;;8.30;63.60;;;;;;6111322;29;20044;-77
2023/01/17 06:23:55;;;;;;;3.15;1.48;;;8.40;63.70;;;;;;6074009;29;20047;-75
2023/01/17 06:26:56;;;;;;;3.60;2.10;;;8.40;63.70;;;;;;6110959;29;20036;-76
2023/01/17 06:29:57;;;;;;;3.50;1.95;;;8.40;63.60;;;;;;6104926;29;20131;-75
2023/01/17 06:32:58;;;;;;;3.38;1.63;;;8.40;63.90;;;;;;6087730;29;20449;-78
2023/01/17 06:35:59;;;;;;;4.68;2.25;;;8.40;63.80;;;;;;6075538;29;20080;-76
2023/01/17 06:38:59;;;;;;;4.38;2.63;;;8.40;64.00;;;;;;6087184;29;20108;-77
2023/01/17 06:42:00;;;;;;;5.60;1.75;;;8.40;64.20;;;;;;6088036;29;20628;-76
2023/01/17 06:45:01;;;;;;;7.75;3.42;;;8.40;64.30;;;;;;6074041;29;20044;-76
2023/01/17 06:48:03;;;;;;;3.85;2.63;;;8.40;64.40;;;;;;6107651;29;20071;-75
2023/01/17 06:51:05;;;;;;;4.88;2.28;;;8.40;64.20;;;;;;6108357;29;20044;-76
2023/01/17 06:54:06;;;;;;;5.38;2.33;;;8.40;64.20;;;;;;6107770;29;20111;-76
2023/01/17 06:57:06;;;;;;;5.80;2.20;;;8.30;64.20;;;;;;6108284;29;20046;-75
2023/01/17 07:00:08;;;;;;;3.53;2.15;;;8.30;64.20;;;;;;6107475;29;20032;-75
2023/01/17 07:03:18;;;;;;;3.95;1.92;;;8.30;64.30;;;;;;6114249;29;20093;-76
2023/01/17 07:06:19;;;;;;;5.50;1.80;;;8.30;64.50;;;;;;6083937;29;20037;-75
2023/01/17 07:09:20;;;;;;;0.98;0.95;;;8.30;64.60;;;;;;6083215;29;20037;-77
2023/01/17 07:12:20;;;;;;;3.42;1.77;;;8.30;64.40;;;;;;6068320;29;20060;-74
2023/01/17 07:15:21;;;;;;;3.97;2.05;;;8.30;64.30;;;;;;6090074;29;20040;-75
2023/01/17 07:18:22;;;;;;;4.25;2.38;;;8.30;64.30;;;;;;6074668;29;20040;-75
2023/01/17 07:21:23;;;;;;;2.10;1.33;;;8.40;64.30;;;;;;6074319;29;20383;-76
2023/01/17 07:24:25;;;;;;;3.47;2.05;;;8.40;64.20;;;;;;6110419;29;20046;-75
2023/01/17 07:27:29;;;;;;;4.32;2.88;;;8.40;64.10;;;;;;6113374;29;20040;-76
2023/01/17 07:30:30;;;;;;;2.40;1.98;;;8.50;64.20;;;;;;6089074;29;20031;-76
2023/01/17 07:33:39;;;;;;;4.90;2.65;;;8.50;64.10;;;;;;6094543;29;20362;-75
2023/01/17 07:36:40;;;;;;;2.90;1.75;;;8.50;64.10;;;;;;6098844;29;20099;-75
2023/01/17 07:39:41;;;;;;;1.33;1.13;;;8.60;64.00;;;;;;6088990;29;20044;-79
2023/01/17 07:42:43;;;;;;;10.32;1.50;;;8.60;64.00;;;;;;6094107;29;20096;-75
2023/01/17 07:45:49;;;;;;;2.35;1.42;;;8.60;64.00;;;;;;6130289;29;20084;-76
2023/01/17 07:48:51;;;;;;;4.10;1.67;;;8.60;63.90;;;;;;6113876;29;20048;-77
2023/01/17 07:51:54;;;;;;;1.55;1.02;;;8.70;63.80;;;;;;6095431;29;20077;-77
2023/01/17 07:54:54;;;;;;;3.40;2.03;;;8.70;63.70;;;;;;6101375;29;20139;-79
2023/01/17 07:57:56;;;;;;;2.00;1.67;;;8.60;63.40;;;;;;6100636;29;20040;-76
2023/01/17 08:01:05;;;;;;;3.17;1.75;;;8.60;63.60;;;;;;6118630;29;20461;-75
2023/01/17 08:04:08;;;;;;;1.58;1.25;;;8.50;63.70;;;;;;6115812;29;20478;-76
2023/01/17 08:07:12;;;;;;;2.70;1.38;;;8.50;64.00;;;;;;6117491;29;20051;-76
2023/01/17 08:10:16;;;;;;;6.07;1.35;;;8.50;64.10;;;;;;6117883;29;20119;-76
2023/01/17 08:13:17;;;;;;;7.20;2.03;;;8.60;64.20;;;;;;6101595;29;20127;-77
2023/01/17 08:16:18;;;;;;;7.07;1.90;;;8.60;64.00;;;;;;6104364;29;20051;-76
2023/01/17 08:19:21;;;;;;;1.75;1.38;;;8.70;64.00;;;;;;6087145;29;20051;-76
2023/01/17 08:22:22;;;;;;;3.78;1.58;;;8.70;63.90;;;;;;6121475;29;20028;-76
2023/01/17 08:25:24;;;;;;;3.45;1.45;;;8.80;63.70;;;;;;6086962;29;20081;-76
2023/01/17 08:28:25;;;;;;;3.13;1.38;;;8.80;63.50;;;;;;6072563;29;20108;-75
2023/01/17 08:31:28;;;;;;;1.92;1.38;;;8.80;63.50;;;;;;6103823;29;20112;-76
2023/01/17 08:34:32;;;;;;;4.82;2.00;;;8.80;64.30;;;;;;6077813;29;20036;-77
2023/01/17 08:37:33;;;;;;;2.40;2.15;;;8.80;63.50;;;;;;6107814;29;20036;-75
2023/01/17 08:40:33;;;;;;;7.85;3.08;;;8.80;63.40;;;;;;6098698;29;20051;-75
2023/01/17 08:43:34;;;;;;;4.32;2.58;;;8.80;63.40;;;;;;6075413;29;20111;-76
2023/01/17 08:46:37;;;;;;;4.70;2.55;;;8.80;63.30;;;;;;6091948;29;20045;-75
2023/01/17 08:49:38;;;;;;;4.32;2.53;;;8.80;63.20;;;;;;6081216;29;20498;-77
2023/01/17 08:52:39;;;;;;;5.88;1.83;;;8.80;63.40;;;;;;6064467;29;20048;-77
2023/01/17 08:55:40;;;;;;;6.97;1.67;;;8.80;63.30;;;;;;6076416;29;20068;-77
2023/01/17 08:58:41;;;;;;;4.10;2.45;;;8.80;63.40;;;;;;6088335;29;20355;-77
2023/01/17 09:01:44;;;;;;;7.25;3.80;;;8.90;63.50;;;;;;6087649;29;20044;-78
2023/01/17 09:04:46;;;;;;;4.15;1.90;;;9.10;63.40;;;;;;6105275;29;20524;-77
2023/01/17 09:07:47;;;;;;;12.35;3.05;;;9.30;63.10;;;;;;6091591;29;20040;-77
2023/01/17 09:10:48;;;;;;;4.15;1.95;;;9.40;62.60;;;;;;6107523;29;20462;-77
2023/01/17 09:13:49;;;;;;;20.98;2.95;;;9.40;62.20;;;;;;6108231;29;20036;-76
2023/01/17 09:16:50;;;;;;;3.70;2.00;;;9.30;62.10;;;;;;6114722;29;20423;-76
2023/01/17 09:19:50;;;;;;;2.88;1.95;;;9.30;62.10;;;;;;6076155;29;20119;-77
2023/01/17 09:22:51;;;;;;;2.28;1.45;;;9.20;62.50;;;;;;6091333;29;20470;-77
2023/01/17 09:25:57;;;;;;;4.93;1.92;;;9.20;62.40;;;;;;6089841;29;20071;-76
2023/01/17 09:28:58;;;;;;;2.55;1.35;;;9.20;62.30;;;;;;6091365;29;20489;-76
2023/01/17 09:31:59;;;;;;;2.97;1.30;;;9.20;62.20;;;;;;6103104;29;20036;-77
2023/01/17 09:35:02;;;;;;;7.57;2.20;;;9.20;62.30;;;;;;6107727;29;20036;-76
2023/01/17 09:38:03;;;;;;;8.68;2.35;;;9.20;62.30;;;;;;6091028;29;20045;-76
2023/01/17 09:41:17;;;;;;;4.68;1.23;;;9.20;62.00;;;;;;6106504;29;20032;-77
2023/01/17 09:44:29;;;;;;;5.10;1.48;;;9.20;62.10;;;;;;6090069;29;20446;-76
2023/01/17 09:47:43;;;;;;;3.05;1.92;;;9.10;62.10;;;;;;6073894;29;20467;-77
2023/01/17 09:50:53;;;;;;;7.22;1.95;;;9.10;61.90;;;;;;6090244;29;20036;-77
2023/01/17 09:53:54;;;;;;;1.70;1.30;;;9.10;61.80;;;;;;6090274;29;20047;-77
2023/01/17 09:57:33;;;;;;;8.27;2.70;;;9.10;61.80;;;;;;6090643;29;20044;-76
2023/01/17 10:00:45;;;;;;;2.17;1.55;;;9.00;61.90;;;;;;5974672;29;20518;-77
2023/01/17 10:04:20;;;;;;;6.70;2.70;;;9.10;62.10;;;;;;5974111;29;20054;-77
2023/01/17 10:08:03;;;;;;;2.72;1.55;;;9.10;62.10;;;;;;5989155;29;20054;-76
2023/01/17 10:11:22;;;;;;;3.75;1.50;;;9.10;62.00;;;;;;5919141;30;20483;-77
2023/01/17 10:15:02;;;;;;;14.52;3.72;;;9.10;62.00;;;;;;5923791;30;20039;-76
2023/01/17 10:18:23;;;;;;;7.75;3.00;;;9.10;62.10;;;;;;5917552;30;20043;-77
2023/01/17 10:21:48;;;;;;;6.68;2.58;;;9.20;62.00;;;;;;5917804;30;20582;-76
2023/01/17 10:25:04;;;;;;;3.88;2.90;;;9.20;62.00;;;;;;5915605;30;20051;-77
2023/01/17 10:28:22;;;;;;;7.20;3.78;;;9.20;62.00;;;;;;5909855;30;20044;-76
2023/01/17 10:31:26;;;;;;;8.75;3.83;;;9.30;62.10;;;;;;5917460;30;20375;-76
2023/01/17 10:34:38;;;;;;;3.75;1.95;;;9.40;61.90;;;;;;5914651;30;20534;-77
2023/01/17 10:37:42;;;;;;;5.32;2.53;;;9.40;61.50;;;;;;5972903;29;20325;-76
2023/01/17 10:41:15;;;;;;;6.47;3.28;;;9.50;61.70;;;;;;5987003;29;20054;-76
2023/01/17 10:44:42;;;;;;;3.13;2.38;;;9.60;62.00;;;;;;5996562;29;20535;-77
2023/01/17 10:47:51;;;;;;;5.35;2.10;;;9.70;61.60;;;;;;6048126;29;20067;-76
2023/01/17 10:50:58;;;;;;;2.63;1.58;;;9.80;61.40;;;;;;6089989;29;20488;-77
2023/01/17 10:54:20;;;;;;;8.85;2.33;;;9.90;61.60;;;;;;6074192;29;20374;-76
2023/01/17 10:57:24;;;;;;;5.25;2.58;;;10.20;61.30;;;;;;6074507;29;20375;-75
2023/01/17 11:00:47;;;;;;;3.95;2.60;;;10.30;60.80;;;;;;6090557;29;20044;-75
2023/01/17 11:03:54;;;;;;;6.13;3.63;;;10.50;60.60;;;;;;6074082;29;20458;-76
2023/01/17 11:07:21;;;;;;;4.10;2.28;;;10.70;60.20;;;;;;6092807;29;20096;-76
2023/01/17 11:10:56;;;;;;;4.45;2.25;;;10.90;59.90;;;;;;6078606;29;20064;-78
2023/01/17 11:14:18;;;;;;;4.85;2.65;;;10.80;59.70;;;;;;6010938;29;20049;-77
2023/01/17 11:17:19;;;;;;;5.15;2.75;;;10.80;59.70;;;;;;6007651;29;20038;-76
2023/01/17 11:20:34;;;;;;;5.60;3.13;;;10.80;59.80;;;;;;6008984;29;20385;-76
2023/01/17 11:23:35;;;;;;;6.97;2.92;;;10.70;59.70;;;;;;6008879;29;20059;-77
2023/01/17 11:26:46;;;;;;;8.20;3.08;;;10.70;59.80;;;;;;6008226;29;20034;-76
2023/01/17 11:29:47;;;;;;;7.38;2.58;;;10.70;59.80;;;;;;5993406;29;20389;-77
2023/01/17 11:32:58;;;;;;;2.85;2.15;;;10.80;59.70;;;;;;5980697;29;20042;-77
2023/01/17 11:35:59;;;;;;;3.28;2.22;;;10.70;59.70;;;;;;6009310;29;20048;-77
2023/01/17 11:39:16;;;;;;;3.28;2.20;;;10.80;59.70;;;;;;5993267;29;20046;-76
2023/01/17 11:42:32;;;;;;;3.58;2.40;;;10.80;59.60;;;;;;6007100;29;20072;-76
2023/01/17 11:45:34;;;;;;;3.00;2.22;;;10.90;59.60;;;;;;5992027;29;20110;-76
2023/01/17 11:48:37;;;;;;;3.72;2.42;;;10.80;59.60;;;;;;5996584;29;20041;-77
2023/01/17 11:51:42;;;;;;;7.32;3.30;;;10.80;59.50;;;;;;6075984;29;20498;-77
2023/01/17 11:54:46;;;;;;;8.93;3.20;;;11.00;59.90;;;;;;6088571;29;20171;-76
2023/01/17 11:57:49;;;;;;;4.20;2.88;;;11.50;59.30;;;;;;6090806;29;20051;-76
2023/01/17 12:01:16;;;;;;;5.03;2.38;;;11.90;58.70;;;;;;6086488;29;20052;-75
2023/01/17 12:04:34;;;;;;;4.88;2.70;;;12.50;57.80;;;;;;6075456;29;20041;-76
2023/01/17 12:07:58;;;;;;;4.35;2.17;;;13.10;56.30;;;;;;6086882;29;20343;-76
2023/01/17 12:11:12;;;;;;;5.40;2.55;;;13.10;55.90;;;;;;6090171;29;20078;-76
2023/01/17 12:14:36;;;;;;;6.40;2.85;;;12.90;55.70;;;;;;6096981;29;20055;-76
2023/01/17 12:18:01;;;;;;;6.03;3.42;;;12.70;55.90;;;;;;6051964;29;20112;-77
2023/01/17 12:21:09;;;;;;;7.70;2.88;;;12.60;56.20;;;;;;6055764;29;20095;-76
2023/01/17 12:24:44;;;;;;;6.40;3.53;;;12.50;56.40;;;;;;6041089;29;20134;-76
2023/01/17 12:27:48;;;;;;;6.32;2.53;;;12.50;56.50;;;;;;6055365;29;20048;-77
2023/01/17 12:31:07;;;;;;;9.07;3.35;;;12.40;56.40;;;;;;6055265;29;20075;-76
2023/01/17 12:34:26;;;;;;;4.72;2.83;;;12.40;56.30;;;;;;6079010;29;20115;-77
2023/01/17 12:37:33;;;;;;;;;;;12.30;56.30;;;;;;6067688;29;20100;-76
2023/01/17 12:40:43;;;;;;;4.07;2.47;;;12.30;56.40;;;;;;6057760;29;19938;-77
2023/01/17 12:43:45;;;;;;;7.57;2.78;;;12.30;56.30;;;;;;6116954;29;20119;-76
2023/01/17 12:46:51;;;;;;;5.18;2.92;;;12.40;56.50;;;;;;6068633;29;20382;-77
2023/01/17 12:49:52;;;;;;;7.05;2.42;;;12.40;56.60;;;;;;6054281;29;20059;-76
2023/01/17 12:53:15;;;;;;;4.68;2.22;;;12.40;56.60;;;;;;6048199;29;20362;-76
2023/01/17 12:56:23;;;;;;;4.07;2.33;;;12.40;56.60;;;;;;6034914;29;20044;-76
2023/01/17 12:59:28;;;;;;;;;;;12.40;56.50;;;;;;5987366;29;20044;-77
2023/01/17 13:02:38;;;;;;;5.10;2.92;;;12.50;56.40;;;;;;5981543;29;19946;-76
2023/01/17 13:05:44;;;;;;;5.30;2.22;;;12.40;56.20;;;;;;5991883;29;20521;-76
2023/01/17 13:08:50;;;;;;;5.60;2.70;;;12.30;56.00;;;;;;5973212;29;20143;-77
2023/01/17 13:12:00;;;;;;;17.13;3.22;;;12.20;56.20;;;;;;5981227;29;20584;-77
2023/01/17 13:15:12;;;;;;;20.38;9.55;;;12.10;56.40;;;;;;5967142;29;20437;-76
2023/01/17 13:18:24;;;;;;;168.10;141.43;;;12.10;56.70;;;;;;5990585;29;20565;-76
2023/01/17 13:21:30;;;;;;;50.10;39.60;;;12.20;56.70;;;;;;5971179;29;20063;-77
2023/01/17 13:24:59;;;;;;;8.80;3.38;;;12.30;56.50;;;;;;5976757;29;20048;-76
2023/01/17 13:28:11;;;;;;;3.90;2.03;;;12.40;56.40;;;;;;6019618;29;20055;-77
2023/01/17 13:31:47;;;;;;;4.18;1.92;;;12.50;56.20;;;;;;6009383;29;20068;-78
2023/01/17 13:35:04;;;;;;;3.38;2.00;;;12.50;56.00;;;;;;6031521;29;20462;-77
2023/01/17 13:38:32;;;;;;;3.13;1.95;;;12.50;55.90;;;;;;6048863;29;20680;-75
2023/01/17 13:41:33;;;;;;;20.48;16.10;;;12.50;55.70;;;;;;6063622;29;20051;-77
2023/01/17 13:44:36;;;;;;;6.97;2.42;;;12.80;55.80;;;;;;6048660;29;20082;-76
2023/01/17 13:47:39;;;;;;;18.95;13.15;;;12.50;55.70;;;;;;6047152;29;20052;-76
2023/01/17 13:50:40;;;;;;;2.80;1.52;;;12.50;55.40;;;;;;6058090;29;20068;-77
2023/01/17 13:53:41;;;;;;;5.63;2.15;;;12.40;55.50;;;;;;6059853;29;20044;-76
2023/01/17 13:56:42;;;;;;;7.80;2.40;;;12.30;55.60;;;;;;6051765;29;20044;-78
2023/01/17 13:59:43;;;;;;;8.98;3.47;;;12.30;55.70;;;;;;6034537;29;20493;-75
2023/01/17 14:02:50;;;;;;;6.55;3.70;;;12.20;55.80;;;;;;6062398;29;20056;-76
2023/01/17 14:05:56;;;;;;;232.05;206.85;;;12.10;56.00;;;;;;6038542;29;20430;-76
2023/01/17 14:09:21;;;;;;;1.77;1.48;;;12.10;56.10;;;;;;6053447;29;20059;-76
2023/01/17 14:12:25;;;;;;;7.82;2.38;;;12.10;56.20;;;;;;6075331;29;20492;-76
2023/01/17 14:15:30;;;;;;;4.25;2.13;;;12.00;56.30;;;;;;6061275;29;20159;-74
2023/01/17 14:18:40;;;;;;;6.35;3.83;;;12.10;56.40;;;;;;6061142;29;20050;-76
2023/01/17 14:21:41;;;;;;;3.65;2.30;;;12.20;56.30;;;;;;6062874;29;20119;-75
2023/01/17 14:25:08;;;;;;;3.92;1.90;;;12.20;56.20;;;;;;6062216;29;20052;-76
2023/01/17 14:28:31;;;;;;;6.25;2.42;;;12.30;56.30;;;;;;6058108;29;20378;-77
2023/01/17 14:31:32;;;;;;;24.50;2.15;;;12.40;56.10;;;;;;6073841;29;21154;-77
2023/01/17 14:34:34;;;;;;;12.75;10.57;;;12.50;55.90;;;;;;6048201;29;20182;-77
2023/01/17 14:37:45;;;;;;;27.75;19.63;;;12.40;55.60;;;;;;6032397;29;20553;-77
2023/01/17 14:41:06;;;;;;;3.30;1.98;;;12.30;55.80;;;;;;6027885;29;22312;-76
2023/01/17 14:44:10;;;;;;;3.10;1.83;;;12.30;56.10;;;;;;6032080;29;20549;-82
2023/01/17 14:47:15;;;;;;;5.20;2.08;;;12.20;56.10;;;;;;6027321;29;20058;-76
2023/01/17 14:50:29;;;;;;;8.93;2.55;;;12.20;56.20;;;;;;6030672;29;20059;-78
2023/01/17 14:53:31;;;;;;;5.78;2.45;;;12.20;56.30;;;;;;6032310;29;20040;-77
2023/01/17 14:56:33;;;;;;;3.88;2.00;;;12.20;56.50;;;;;;6031122;29;20079;-77
2023/01/17 14:59:34;;;;;;;9.13;2.55;;;12.10;56.60;;;;;;6030161;29;20090;-76
2023/01/17 15:02:40;;;;;;;3.60;1.90;;;12.10;56.80;;;;;;6051414;29;20040;-77
2023/01/17 15:05:44;;;;;;;7.18;2.20;;;12.00;56.90;;;;;;6048350;29;20043;-77
2023/01/17 15:08:47;;;;;;;5.10;2.30;;;12.00;57.20;;;;;;6046106;29;23541;-76
2023/01/17 15:11:49;;;;;;;4.65;2.47;;;11.90;57.20;;;;;;6014905;29;20052;-76
2023/01/17 15:14:50;;;;;;;6.15;2.63;;;11.90;57.20;;;;;;5995910;29;20045;-76
2023/01/17 15:18:06;;;;;;;6.22;2.90;;;11.90;57.20;;;;;;6003786;29;20052;-77
2023/01/17 15:21:12;;;;;;;5.95;2.85;;;11.80;57.30;;;;;;6001340;29;20044;-76
2023/01/17 15:24:20;;;;;;;10.18;2.92;;;11.90;57.30;;;;;;6026828;29;20695;-76
2023/01/17 15:27:25;;;;;;;7.18;3.42;;;11.90;57.30;;;;;;6016079;29;20123;-76
2023/01/17 15:30:26;;;;;;;4.95;2.80;;;11.90;57.40;;;;;;6032515;29;20062;-76
2023/01/17 15:33:29;;;;;;;6.03;2.85;;;11.90;57.40;;;;;;6037543;29;20549;-75
2023/01/17 15:36:33;;;;;;;12.65;3.78;;;12.00;57.50;;;;;;6055514;29;20040;-75
2023/01/17 15:39:37;;;;;;;5.40;2.60;;;12.00;57.50;;;;;;6037885;29;20094;-75
2023/01/17 15:42:42;;;;;;;9.27;3.92;;;12.00;57.60;;;;;;6112258;29;20035;-76
2023/01/17 15:45:56;;;;;;;5.80;2.67;;;12.00;57.60;;;;;;6104412;29;20051;-77
2023/01/17 15:49:14;;;;;;;8.75;3.22;;;11.90;57.50;;;;;;6063834;29;20151;-76
2023/01/17 15:52:15;;;;;;;11.13;4.10;;;11.90;57.70;;;;;;6060256;29;20040;-75
2023/01/17 15:55:29;;;;;;;8.80;3.45;;;11.90;57.70;;;;;;6076407;29;20036;-76
2023/01/17 15:58:29;;;;;;;6.07;2.63;;;11.90;57.90;;;;;;6058122;29;20040;-77
2023/01/17 16:01:31;;;;;;;9.40;3.05;;;11.80;57.80;;;;;;6023967;29;20104;-74
2023/01/17 16:04:35;;;;;;;15.63;4.97;;;11.80;57.80;;;;;;6017246;29;20541;-78
2023/01/17 16:07:37;;;;;;;16.80;3.85;;;11.70;58.00;;;;;;6027935;29;20490;-77
2023/01/17 16:10:38;;;;;;;8.77;3.47;;;11.60;58.10;;;;;;6028184;29;20062;-75
2023/01/17 16:13:42;;;;;;;14.25;3.30;;;11.60;58.30;;;;;;6043622;29;20438;-76
2023/01/17 16:16:53;;;;;;;5.05;2.40;;;11.50;58.40;;;;;;6048970;29;20449;-74
2023/01/17 16:19:53;;;;;;;9.43;3.40;;;11.50;58.60;;;;;;6043477;29;20043;-75
2023/01/17 16:22:54;;;;;;;6.15;3.40;;;11.40;58.70;;;;;;6057347;29;20062;-75
2023/01/17 16:25:55;;;;;;;5.57;3.03;;;11.40;59.00;;;;;;6060404;29;20415;-76
2023/01/17 16:28:56;;;;;;;6.32;2.42;;;11.30;59.10;;;;;;6111531;29;20071;-75
2023/01/17 16:31:58;;;;;;;6.75;3.05;;;11.30;59.30;;;;;;6096859;29;20362;-75
2023/01/17 16:34:58;;;;;;;6.65;2.78;;;11.20;59.40;;;;;;6100483;29;20418;-75
2023/01/17 16:38:06;;;;;;;5.90;2.67;;;11.20;59.40;;;;;;6076348;29;20040;-75
2023/01/17 16:41:07;;;;;;;9.18;3.22;;;11.20;59.60;;;;;;6076845;29;20534;-76
2023/01/17 16:44:08;;;;;;;5.57;3.00;;;11.20;59.60;;;;;;6044369;29;20048;-75
2023/01/17 16:47:10;;;;;;;6.80;2.75;;;11.10;59.60;;;;;;6051882;29;20104;-75
2023/01/17 16:50:14;;;;;;;7.88;3.65;;;11.10;59.50;;;;;;6041663;29;20044;-75
2023/01/17 16:53:16;;;;;;;8.80;4.32;;;11.10;59.50;;;;;;6006408;29;20155;-75
2023/01/17 16:56:18;;;;;;;8.75;3.60;;;11.00;59.50;;;;;;5999711;29;20059;-75
2023/01/17 16:59:19;;;;;;;6.10;3.45;;;11.00;59.60;;;;;;6017510;29;20111;-75
2023/01/17 17:02:21;;;;;;;5.90;3.17;;;10.90;59.70;;;;;;5981152;29;20027;-74
2023/01/17 17:05:32;;;;;;;8.68;4.07;;;10.90;59.70;;;;;;6010550;29;20178;-75
2023/01/17 17:08:34;;;;;;;9.02;4.13;;;10.90;59.80;;;;;;6020808;29;20988;-75
2023/01/17 17:11:35;;;;;;;9.95;4.15;;;10.90;59.80;;;;;;5999291;29;20056;-75
2023/01/17 17:14:36;;;;;;;14.40;3.97;;;10.90;59.90;;;;;;5998956;29;20728;-74
2023/01/17 17:17:39;;;;;;;8.65;4.15;;;10.90;59.90;;;;;;6046687;29;21433;-75
2023/01/17 17:20:41;;;;;;;11.57;4.65;;;10.90;60.10;;;;;;6016825;29;20377;-74
2023/01/17 17:23:42;;;;;;;18.67;7.53;;;10.80;60.30;;;;;;6031250;29;20478;-76
2023/01/17 17:26:44;;;;;;;14.27;5.95;;;10.70;60.50;;;;;;6031059;29;20071;-76
2023/01/17 17:29:45;;;;;;;8.18;3.83;;;10.70;60.90;;;;;;6001996;29;21032;-76
2023/01/17 17:32:46;;;;;;;6.03;3.35;;;10.60;61.00;;;;;;5970611;29;20051;-78
2023/01/17 17:35:47;;;;;;;10.95;4.57;;;10.60;61.30;;;;;;5996080;29;20056;-75